sensor_id;sensor_type;location;lat;lon;timestamp;pressure;altitude;pressure_sealevel;temperature;humidity
70921;BME280;58572;48.110;19.838;2023-11-19T00:00:19;98311.88;;;4.12;70.62
70921;BME280;58572;48.110;19.838;2023-11-19T00:02:46;98305.66;;;4.00;70.60
70921;BME280;58572;48.110;19.838;2023-11-19T00:05:14;98294.31;;;3.98;70.29
70921;BME280;58572;48.110;19.838;2023-11-19T00:07:42;98186.50;;;3.34;70.80
70921;BME280;58572;48.110;19.838;2023-11-19T00:10:10;98291.75;;;4.03;70.68
70921;BME280;58572;48.110;19.838;2023-11-19T00:12:38;98288.22;;;3.91;70.45
70921;BME280;58572;48.110;19.838;2023-11-19T00:15:06;98236.84;;;3.69;70.18
70921;BME280;58572;48.110;19.838;2023-11-19T00:17:36;98283.03;;;3.77;70.84
70921;BME280;58572;48.110;19.838;2023-11-19T00:20:05;98275.38;;;3.51;71.08
70921;BME280;58572;48.110;19.838;2023-11-19T00:22:34;98272.13;;;3.61;71.15
70921;BME280;58572;48.110;19.838;2023-11-19T00:25:01;98274.63;;;3.85;70.65
70921;BME280;58572;48.110;19.838;2023-11-19T00:27:29;98283.56;;;3.98;70.70
70921;BME280;58572;48.110;19.838;2023-11-19T00:29:56;98289.53;;;4.00;70.78
70921;BME280;58572;48.110;19.838;2023-11-19T00:32:23;98298.19;;;4.02;70.04
70921;BME280;58572;48.110;19.838;2023-11-19T00:34:50;98294.25;;;3.74;70.86
70921;BME280;58572;48.110;19.838;2023-11-19T00:37:17;98291.78;;;3.73;70.85
70921;BME280;58572;48.110;19.838;2023-11-19T00:39:46;98167.56;;;3.29;69.89
70921;BME280;58572;48.110;19.838;2023-11-19T00:42:13;98277.19;;;3.80;70.45
70921;BME280;58572;48.110;19.838;2023-11-19T00:44:40;98263.28;;;3.83;70.27
70921;BME280;58572;48.110;19.838;2023-11-19T00:47:08;98267.84;;;3.83;70.77
70921;BME280;58572;48.110;19.838;2023-11-19T00:49:34;98273.56;;;3.75;70.93
70921;BME280;58572;48.110;19.838;2023-11-19T00:52:02;98270.97;;;3.68;71.28
70921;BME280;58572;48.110;19.838;2023-11-19T00:54:29;98271.59;;;3.82;70.94
70921;BME280;58572;48.110;19.838;2023-11-19T00:56:57;98265.72;;;3.73;70.86
70921;BME280;58572;48.110;19.838;2023-11-19T00:59:24;98263.88;;;3.85;70.17
70921;BME280;58572;48.110;19.838;2023-11-19T01:01:51;98260.03;;;3.81;70.62
70921;BME280;58572;48.110;19.838;2023-11-19T01:04:18;98262.25;;;3.84;70.56
70921;BME280;58572;48.110;19.838;2023-11-19T01:06:45;98262.28;;;3.55;71.21
70921;BME280;58572;48.110;19.838;2023-11-19T01:09:12;98255.38;;;3.47;71.68
70921;BME280;58572;48.110;19.838;2023-11-19T01:11:39;98264.00;;;3.79;70.25
70921;BME280;58572;48.110;19.838;2023-11-19T01:14:08;98244.47;;;3.83;67.28
70921;BME280;58572;48.110;19.838;2023-11-19T01:16:34;98242.47;;;3.79;69.90
70921;BME280;58572;48.110;19.838;2023-11-19T01:19:01;98247.16;;;3.83;69.70
70921;BME280;58572;48.110;19.838;2023-11-19T01:21:30;98239.09;;;3.83;70.36
70921;BME280;58572;48.110;19.838;2023-11-19T01:23:57;98229.97;;;3.84;69.94
70921;BME280;58572;48.110;19.838;2023-11-19T01:26:25;98231.22;;;3.70;69.73
70921;BME280;58572;48.110;19.838;2023-11-19T01:28:52;98236.03;;;3.68;70.62
70921;BME280;58572;48.110;19.838;2023-11-19T01:31:20;98242.22;;;3.69;69.86
70921;BME280;58572;48.110;19.838;2023-11-19T01:33:47;98240.59;;;3.68;70.78
70921;BME280;58572;48.110;19.838;2023-11-19T01:36:14;98240.84;;;3.78;69.76
70921;BME280;58572;48.110;19.838;2023-11-19T01:38:41;98233.34;;;3.68;70.36
70921;BME280;58572;48.110;19.838;2023-11-19T01:41:09;98244.81;;;3.75;69.81
70921;BME280;58572;48.110;19.838;2023-11-19T01:43:36;98248.16;;;3.59;70.36
70921;BME280;58572;48.110;19.838;2023-11-19T01:46:05;98220.75;;;3.39;70.56
70921;BME280;58572;48.110;19.838;2023-11-19T01:48:34;98227.84;;;3.63;70.24
70921;BME280;58572;48.110;19.838;2023-11-19T01:51:03;98243.03;;;3.69;70.31
70921;BME280;58572;48.110;19.838;2023-11-19T01:53:30;98100.50;;;2.81;70.01
70921;BME280;58572;48.110;19.838;2023-11-19T01:55:59;98229.44;;;3.52;70.72
70921;BME280;58572;48.110;19.838;2023-11-19T01:58:27;98224.56;;;3.61;70.53
70921;BME280;58572;48.110;19.838;2023-11-19T02:00:56;98221.13;;;3.42;70.40
70921;BME280;58572;48.110;19.838;2023-11-19T02:03:24;98223.06;;;3.77;69.38
70921;BME280;58572;48.110;19.838;2023-11-19T02:05:54;98219.25;;;3.43;70.46
70921;BME280;58572;48.110;19.838;2023-11-19T02:08:22;98211.28;;;3.36;70.60
70921;BME280;58572;48.110;19.838;2023-11-19T02:10:49;98218.03;;;3.27;70.52
70921;BME280;58572;48.110;19.838;2023-11-19T02:13:17;98219.25;;;3.43;70.57
70921;BME280;58572;48.110;19.838;2023-11-19T02:15:44;98218.84;;;3.69;70.01
70921;BME280;58572;48.110;19.838;2023-11-19T02:18:18;98210.78;;;3.69;69.47
70921;BME280;58572;48.110;19.838;2023-11-19T02:20:47;98203.63;;;3.51;69.78
70921;BME280;58572;48.110;19.838;2023-11-19T02:23:16;98219.19;;;3.61;70.19
70921;BME280;58572;48.110;19.838;2023-11-19T02:25:47;98225.22;;;3.45;69.89
70921;BME280;58572;48.110;19.838;2023-11-19T02:28:19;98211.84;;;3.27;70.23
70921;BME280;58572;48.110;19.838;2023-11-19T02:30:46;98213.97;;;3.36;70.79
70921;BME280;58572;48.110;19.838;2023-11-19T02:33:13;98209.00;;;3.63;69.93
70921;BME280;58572;48.110;19.838;2023-11-19T02:35:40;98207.63;;;3.72;68.86
70921;BME280;58572;48.110;19.838;2023-11-19T02:38:07;98095.25;;;2.86;69.69
70921;BME280;58572;48.110;19.838;2023-11-19T02:40:35;98175.19;;;3.44;69.85
70921;BME280;58572;48.110;19.838;2023-11-19T02:43:02;98180.38;;;3.57;69.39
70921;BME280;58572;48.110;19.838;2023-11-19T02:45:31;98179.69;;;3.73;69.39
70921;BME280;58572;48.110;19.838;2023-11-19T02:47:59;98183.25;;;3.44;70.00
70921;BME280;58572;48.110;19.838;2023-11-19T02:50:28;98184.53;;;3.41;70.28
70921;BME280;58572;48.110;19.838;2023-11-19T02:52:55;98167.00;;;3.39;70.33
70921;BME280;58572;48.110;19.838;2023-11-19T02:55:23;98156.31;;;3.62;69.35
70921;BME280;58572;48.110;19.838;2023-11-19T02:57:51;98158.41;;;3.60;69.88
70921;BME280;58572;48.110;19.838;2023-11-19T03:00:20;98160.16;;;3.66;69.29
70921;BME280;58572;48.110;19.838;2023-11-19T03:02:59;98152.06;;;3.43;70.28
70921;BME280;58572;48.110;19.838;2023-11-19T03:05:31;98163.03;;;3.30;70.04
70921;BME280;58572;48.110;19.838;2023-11-19T03:07:58;98176.31;;;3.25;70.23
70921;BME280;58572;48.110;19.838;2023-11-19T03:10:25;98153.00;;;3.37;70.65
70921;BME280;58572;48.110;19.838;2023-11-19T03:12:52;98149.53;;;3.71;69.03
70921;BME280;58572;48.110;19.838;2023-11-19T03:15:20;98158.41;;;3.60;69.06
70921;BME280;58572;48.110;19.838;2023-11-19T03:17:48;98150.31;;;3.48;69.62
70921;BME280;58572;48.110;19.838;2023-11-19T03:20:16;98144.81;;;3.32;70.12
70921;BME280;58572;48.110;19.838;2023-11-19T03:22:43;98133.84;;;3.45;69.69
70921;BME280;58572;48.110;19.838;2023-11-19T03:25:10;98129.53;;;3.79;68.60
70921;BME280;58572;48.110;19.838;2023-11-19T03:27:38;98126.84;;;3.67;69.27
70921;BME280;58572;48.110;19.838;2023-11-19T03:30:08;98111.31;;;3.69;68.64
70921;BME280;58572;48.110;19.838;2023-11-19T03:32:36;98069.00;;;3.53;68.99
70921;BME280;58572;48.110;19.838;2023-11-19T03:35:05;98113.06;;;3.52;69.60
70921;BME280;58572;48.110;19.838;2023-11-19T03:37:35;98131.16;;;3.57;69.83
70921;BME280;58572;48.110;19.838;2023-11-19T03:40:04;98142.69;;;3.34;70.76
70921;BME280;58572;48.110;19.838;2023-11-19T03:42:31;98084.91;;;3.01;70.94
70921;BME280;58572;48.110;19.838;2023-11-19T03:44:58;98113.28;;;3.62;68.90
70921;BME280;58572;48.110;19.838;2023-11-19T03:47:25;98111.88;;;3.36;69.82
70921;BME280;58572;48.110;19.838;2023-11-19T03:49:53;98108.44;;;2.58;72.21
70921;BME280;58572;48.110;19.838;2023-11-19T03:52:20;98111.50;;;2.91;71.55
70921;BME280;58572;48.110;19.838;2023-11-19T03:54:49;98108.94;;;3.26;70.08
70921;BME280;58572;48.110;19.838;2023-11-19T03:57:16;98099.47;;;3.35;70.19
70921;BME280;58572;48.110;19.838;2023-11-19T03:59:43;98104.03;;;3.46;70.26
70921;BME280;58572;48.110;19.838;2023-11-19T04:02:11;98094.25;;;3.52;70.17
70921;BME280;58572;48.110;19.838;2023-11-19T04:04:38;98089.44;;;3.54;69.66
70921;BME280;58572;48.110;19.838;2023-11-19T04:07:05;98079.97;;;3.40;69.81
70921;BME280;58572;48.110;19.838;2023-11-19T04:09:32;98081.00;;;3.27;70.70
70921;BME280;58572;48.110;19.838;2023-11-19T04:12:01;98075.41;;;3.29;70.29
70921;BME280;58572;48.110;19.838;2023-11-19T04:14:28;98052.28;;;3.51;69.46
70921;BME280;58572;48.110;19.838;2023-11-19T04:16:55;98051.34;;;3.57;69.69
70921;BME280;58572;48.110;19.838;2023-11-19T04:19:22;98060.34;;;3.63;69.54
70921;BME280;58572;48.110;19.838;2023-11-19T04:21:50;98071.44;;;3.43;69.68
70921;BME280;58572;48.110;19.838;2023-11-19T04:24:17;98075.41;;;3.40;70.34
70921;BME280;58572;48.110;19.838;2023-11-19T04:26:45;98066.41;;;3.70;68.73
70921;BME280;58572;48.110;19.838;2023-11-19T04:29:14;98070.16;;;3.34;69.73
70921;BME280;58572;48.110;19.838;2023-11-19T04:31:42;98063.50;;;3.25;70.39
70921;BME280;58572;48.110;19.838;2023-11-19T04:34:10;98067.34;;;3.29;70.12
70921;BME280;58572;48.110;19.838;2023-11-19T04:36:38;98063.53;;;2.95;70.13
70921;BME280;58572;48.110;19.838;2023-11-19T04:39:05;98062.50;;;3.07;70.85
70921;BME280;58572;48.110;19.838;2023-11-19T04:41:35;98049.94;;;3.19;70.22
70921;BME280;58572;48.110;19.838;2023-11-19T04:44:02;98053.84;;;2.94;71.30
70921;BME280;58572;48.110;19.838;2023-11-19T04:46:30;98054.13;;;3.15;70.25
70921;BME280;58572;48.110;19.838;2023-11-19T04:48:58;98036.31;;;2.91;71.20
70921;BME280;58572;48.110;19.838;2023-11-19T04:51:25;98040.31;;;3.12;70.54
70921;BME280;58572;48.110;19.838;2023-11-19T04:53:52;98039.19;;;3.43;69.61
70921;BME280;58572;48.110;19.838;2023-11-19T04:56:19;98044.34;;;3.33;69.51
70921;BME280;58572;48.110;19.838;2023-11-19T04:58:48;98037.09;;;3.68;68.27
70921;BME280;58572;48.110;19.838;2023-11-19T05:01:15;98036.38;;;3.61;68.80
70921;BME280;58572;48.110;19.838;2023-11-19T05:03:45;98050.06;;;3.71;68.85
70921;BME280;58572;48.110;19.838;2023-11-19T05:06:12;98060.47;;;3.56;68.81
70921;BME280;58572;48.110;19.838;2023-11-19T05:08:39;98064.31;;;3.60;69.40
70921;BME280;58572;48.110;19.838;2023-11-19T05:11:06;98070.97;;;3.46;69.36
70921;BME280;58572;48.110;19.838;2023-11-19T05:13:33;98065.03;;;3.44;69.74
70921;BME280;58572;48.110;19.838;2023-11-19T05:16:01;98063.03;;;3.51;69.84
70921;BME280;58572;48.110;19.838;2023-11-19T05:18:28;98075.88;;;3.49;69.71
70921;BME280;58572;48.110;19.838;2023-11-19T05:20:56;98047.38;;;3.25;69.59
70921;BME280;58572;48.110;19.838;2023-11-19T05:23:23;98083.59;;;3.45;69.64
70921;BME280;58572;48.110;19.838;2023-11-19T05:25:50;98083.72;;;3.62;68.95
70921;BME280;58572;48.110;19.838;2023-11-19T05:28:17;98089.91;;;3.63;69.02
70921;BME280;58572;48.110;19.838;2023-11-19T05:30:44;98070.88;;;3.52;69.30
70921;BME280;58572;48.110;19.838;2023-11-19T05:33:12;98076.66;;;3.14;68.64
70921;BME280;58572;48.110;19.838;2023-11-19T05:35:39;98074.22;;;3.25;70.12
70921;BME280;58572;48.110;19.838;2023-11-19T05:38:07;98078.00;;;3.70;68.61
70921;BME280;58572;48.110;19.838;2023-11-19T05:40:35;98076.00;;;3.42;69.27
70921;BME280;58572;48.110;19.838;2023-11-19T05:43:04;98084.19;;;3.59;69.33
70921;BME280;58572;48.110;19.838;2023-11-19T05:45:32;98085.81;;;3.72;68.65
70921;BME280;58572;48.110;19.838;2023-11-19T05:47:59;98083.13;;;3.25;68.95
70921;BME280;58572;48.110;19.838;2023-11-19T05:50:26;98080.69;;;3.47;69.65
70921;BME280;58572;48.110;19.838;2023-11-19T05:52:53;98090.63;;;3.58;68.88
70921;BME280;58572;48.110;19.838;2023-11-19T05:55:21;98094.22;;;3.40;69.94
70921;BME280;58572;48.110;19.838;2023-11-19T05:57:50;98088.03;;;3.63;68.92
70921;BME280;58572;48.110;19.838;2023-11-19T06:00:17;98090.25;;;3.66;68.86
70921;BME280;58572;48.110;19.838;2023-11-19T06:02:45;98055.69;;;3.46;69.25
70921;BME280;58572;48.110;19.838;2023-11-19T06:05:12;98071.22;;;3.56;69.08
70921;BME280;58572;48.110;19.838;2023-11-19T06:07:39;98085.59;;;3.62;69.34
70921;BME280;58572;48.110;19.838;2023-11-19T06:10:07;98082.19;;;3.66;69.24
70921;BME280;58572;48.110;19.838;2023-11-19T06:12:37;98080.44;;;3.72;69.33
70921;BME280;58572;48.110;19.838;2023-11-19T06:15:08;98090.84;;;3.68;69.35
70921;BME280;58572;48.110;19.838;2023-11-19T06:17:35;98090.72;;;3.63;68.72
70921;BME280;58572;48.110;19.838;2023-11-19T06:20:03;98089.44;;;3.54;69.50
70921;BME280;58572;48.110;19.838;2023-11-19T06:22:31;98085.09;;;4.00;67.33
70921;BME280;58572;48.110;19.838;2023-11-19T06:24:58;98103.81;;;3.83;68.79
70921;BME280;58572;48.110;19.838;2023-11-19T06:27:25;98099.03;;;3.73;69.02
70921;BME280;58572;48.110;19.838;2023-11-19T06:29:54;98090.97;;;3.73;68.43
70921;BME280;58572;48.110;19.838;2023-11-19T06:32:21;98088.75;;;3.70;69.08
70921;BME280;58572;48.110;19.838;2023-11-19T06:34:48;98073.75;;;3.98;67.26
70921;BME280;58572;48.110;19.838;2023-11-19T06:37:15;98062.91;;;3.58;68.20
70921;BME280;58572;48.110;19.838;2023-11-19T06:39:42;98045.16;;;3.68;69.10
70921;BME280;58572;48.110;19.838;2023-11-19T06:42:09;98042.94;;;3.42;69.45
70921;BME280;58572;48.110;19.838;2023-11-19T06:44:36;98040.66;;;3.97;68.50
70921;BME280;58572;48.110;19.838;2023-11-19T06:47:05;98049.56;;;3.86;68.58
70921;BME280;58572;48.110;19.838;2023-11-19T06:49:32;98050.63;;;3.85;68.91
70921;BME280;58572;48.110;19.838;2023-11-19T06:51:59;98045.25;;;3.85;67.94
70921;BME280;58572;48.110;19.838;2023-11-19T06:54:26;98044.84;;;4.05;67.92
70921;BME280;58572;48.110;19.838;2023-11-19T06:56:53;98042.06;;;4.00;67.78
70921;BME280;58572;48.110;19.838;2023-11-19T06:59:20;98047.47;;;3.88;68.41
70921;BME280;58572;48.110;19.838;2023-11-19T07:01:47;98064.75;;;3.92;68.54
70921;BME280;58572;48.110;19.838;2023-11-19T07:04:16;98067.41;;;4.27;67.04
70921;BME280;58572;48.110;19.838;2023-11-19T07:06:43;98061.56;;;4.07;67.95
70921;BME280;58572;48.110;19.838;2023-11-19T07:09:10;98062.34;;;3.44;69.84
70921;BME280;58572;48.110;19.838;2023-11-19T07:11:37;98064.25;;;4.19;68.07
70921;BME280;58572;48.110;19.838;2023-11-19T07:14:05;98068.22;;;4.16;67.42
70921;BME280;58572;48.110;19.838;2023-11-19T07:16:32;98050.00;;;4.06;67.74
70921;BME280;58572;48.110;19.838;2023-11-19T07:19:00;98051.84;;;4.58;65.74
70921;BME280;58572;48.110;19.838;2023-11-19T07:21:29;98047.41;;;4.52;66.15
70921;BME280;58572;48.110;19.838;2023-11-19T07:23:56;98046.28;;;4.47;66.09
70921;BME280;58572;48.110;19.838;2023-11-19T07:26:23;98032.91;;;4.53;66.55
70921;BME280;58572;48.110;19.838;2023-11-19T07:28:50;98052.47;;;4.48;66.08
70921;BME280;58572;48.110;19.838;2023-11-19T07:31:17;98041.56;;;4.55;65.94
70921;BME280;58572;48.110;19.838;2023-11-19T07:33:45;98028.97;;;4.43;66.89
70921;BME280;58572;48.110;19.838;2023-11-19T07:36:13;98020.03;;;4.55;66.29
70921;BME280;58572;48.110;19.838;2023-11-19T07:38:45;98019.19;;;4.54;66.59
70921;BME280;58572;48.110;19.838;2023-11-19T07:41:13;98000.22;;;4.61;66.15
70921;BME280;58572;48.110;19.838;2023-11-19T07:43:43;97988.25;;;4.85;65.19
70921;BME280;58572;48.110;19.838;2023-11-19T07:46:12;98000.34;;;4.54;66.65
70921;BME280;58572;48.110;19.838;2023-11-19T07:48:39;97999.06;;;4.57;66.87
70921;BME280;58572;48.110;19.838;2023-11-19T07:51:07;97984.63;;;4.63;66.58
70921;BME280;58572;48.110;19.838;2023-11-19T07:53:34;97983.22;;;4.43;67.54
70921;BME280;58572;48.110;19.838;2023-11-19T07:56:06;97986.41;;;4.57;67.12
70921;BME280;58572;48.110;19.838;2023-11-19T07:58:33;97988.41;;;4.95;65.49
70921;BME280;58572;48.110;19.838;2023-11-19T08:01:00;97993.94;;;4.72;65.84
70921;BME280;58572;48.110;19.838;2023-11-19T08:03:28;98006.75;;;4.36;67.56
70921;BME280;58572;48.110;19.838;2023-11-19T08:05:56;98051.25;;;4.27;67.98
70921;BME280;58572;48.110;19.838;2023-11-19T08:08:25;97988.41;;;4.33;67.44
70921;BME280;58572;48.110;19.838;2023-11-19T08:10:52;98013.13;;;4.92;66.09
70921;BME280;58572;48.110;19.838;2023-11-19T08:13:21;97995.56;;;4.73;66.91
70921;BME280;58572;48.110;19.838;2023-11-19T08:15:48;97997.06;;;4.80;66.53
70921;BME280;58572;48.110;19.838;2023-11-19T08:18:15;98028.97;;;4.43;67.82
70921;BME280;58572;48.110;19.838;2023-11-19T08:20:42;98030.78;;;4.55;67.54
70921;BME280;58572;48.110;19.838;2023-11-19T08:23:10;98020.72;;;4.78;67.71
70921;BME280;58572;48.110;19.838;2023-11-19T08:25:37;98007.63;;;4.54;67.80
70921;BME280;58572;48.110;19.838;2023-11-19T08:28:04;97991.38;;;4.48;69.03
70921;BME280;58572;48.110;19.838;2023-11-19T08:30:33;97994.25;;;4.59;68.28
70921;BME280;58572;48.110;19.838;2023-11-19T08:33:00;97966.94;;;4.67;67.76
70921;BME280;58572;48.110;19.838;2023-11-19T08:35:28;97979.69;;;5.22;65.89
70921;BME280;58572;48.110;19.838;2023-11-19T08:37:55;97988.06;;;5.08;66.53
70921;BME280;58572;48.110;19.838;2023-11-19T08:40:23;97987.91;;;5.15;66.65
70921;BME280;58572;48.110;19.838;2023-11-19T08:42:51;97982.38;;;5.22;65.71
70921;BME280;58572;48.110;19.838;2023-11-19T08:45:18;97978.44;;;5.12;66.34
70921;BME280;58572;48.110;19.838;2023-11-19T08:47:47;97987.91;;;4.98;66.31
70921;BME280;58572;48.110;19.838;2023-11-19T08:50:14;97983.34;;;4.82;68.57
70921;BME280;58572;48.110;19.838;2023-11-19T08:52:41;97976.63;;;5.18;66.89
70921;BME280;58572;48.110;19.838;2023-11-19T08:55:08;97964.66;;;5.64;65.27
70921;BME280;58572;48.110;19.838;2023-11-19T08:57:35;97974.03;;;5.40;65.89
70921;BME280;58572;48.110;19.838;2023-11-19T09:00:03;97961.97;;;5.26;65.75
70921;BME280;58572;48.110;19.838;2023-11-19T09:02:33;97950.81;;;5.39;66.13
70921;BME280;58572;48.110;19.838;2023-11-19T09:05:02;97957.66;;;4.29;71.15
70921;BME280;58572;48.110;19.838;2023-11-19T09:07:29;97941.22;;;4.76;69.04
70921;BME280;58572;48.110;19.838;2023-11-19T09:09:56;97939.50;;;5.20;67.37
70921;BME280;58572;48.110;19.838;2023-11-19T09:12:23;97881.34;;;4.69;69.48
70921;BME280;58572;48.110;19.838;2023-11-19T09:14:50;97937.47;;;4.77;68.03
70921;BME280;58572;48.110;19.838;2023-11-19T09:17:17;97943.03;;;5.21;69.62
70921;BME280;58572;48.110;19.838;2023-11-19T09:19:44;97952.00;;;4.93;69.05
70921;BME280;58572;48.110;19.838;2023-11-19T09:22:13;97944.91;;;5.20;69.42
70921;BME280;58572;48.110;19.838;2023-11-19T09:24:40;97949.94;;;5.17;68.47
70921;BME280;58572;48.110;19.838;2023-11-19T09:27:09;97950.75;;;5.17;68.51
70921;BME280;58572;48.110;19.838;2023-11-19T09:29:37;97955.75;;;5.86;67.38
70921;BME280;58572;48.110;19.838;2023-11-19T09:32:05;97906.94;;;5.22;69.36
70921;BME280;58572;48.110;19.838;2023-11-19T09:34:33;97957.78;;;5.35;67.93
70921;BME280;58572;48.110;19.838;2023-11-19T09:37:00;97949.91;;;5.50;67.56
70921;BME280;58572;48.110;19.838;2023-11-19T09:39:29;97935.41;;;5.18;67.92
70921;BME280;58572;48.110;19.838;2023-11-19T09:41:57;97936.59;;;5.43;67.60
70921;BME280;58572;48.110;19.838;2023-11-19T09:44:24;97933.16;;;5.48;67.35
70921;BME280;58572;48.110;19.838;2023-11-19T09:46:52;97927.03;;;5.74;66.44
70921;BME280;58572;48.110;19.838;2023-11-19T09:49:21;97918.88;;;6.13;65.33
70921;BME280;58572;48.110;19.838;2023-11-19T09:51:52;97909.84;;;5.59;64.89
70921;BME280;58572;48.110;19.838;2023-11-19T09:54:20;97900.22;;;5.07;66.92
70921;BME280;58572;48.110;19.838;2023-11-19T09:56:48;97894.34;;;5.27;67.68
70921;BME280;58572;48.110;19.838;2023-11-19T09:59:16;97878.47;;;6.23;64.83
70921;BME280;58572;48.110;19.838;2023-11-19T10:01:44;97901.44;;;5.55;66.55
70921;BME280;58572;48.110;19.838;2023-11-19T10:04:14;97910.66;;;5.81;67.85
70921;BME280;58572;48.110;19.838;2023-11-19T10:06:42;97907.88;;;6.20;64.59
70921;BME280;58572;48.110;19.838;2023-11-19T10:09:12;97913.78;;;5.51;67.52
70921;BME280;58572;48.110;19.838;2023-11-19T10:11:40;97911.13;;;6.22;65.52
70921;BME280;58572;48.110;19.838;2023-11-19T10:14:09;97909.78;;;5.97;66.34
70921;BME280;58572;48.110;19.838;2023-11-19T10:16:38;97915.94;;;5.93;66.69
70921;BME280;58572;48.110;19.838;2023-11-19T10:19:05;97879.28;;;5.97;66.45
70921;BME280;58572;48.110;19.838;2023-11-19T10:21:32;97893.41;;;6.04;65.56
70921;BME280;58572;48.110;19.838;2023-11-19T10:24:00;97893.28;;;5.94;65.51
70921;BME280;58572;48.110;19.838;2023-11-19T10:26:27;97894.84;;;5.24;68.40
70921;BME280;58572;48.110;19.838;2023-11-19T10:28:55;97895.97;;;5.28;67.70
70921;BME280;58572;48.110;19.838;2023-11-19T10:31:24;97905.16;;;4.77;69.10
70921;BME280;58572;48.110;19.838;2023-11-19T10:33:52;97831.84;;;4.92;68.32
70921;BME280;58572;48.110;19.838;2023-11-19T10:36:19;97890.47;;;5.62;68.52
70921;BME280;58572;48.110;19.838;2023-11-19T10:38:52;97892.28;;;6.00;67.00
70921;BME280;58572;48.110;19.838;2023-11-19T10:41:32;97897.84;;;5.28;68.07
70921;BME280;58572;48.110;19.838;2023-11-19T10:43:59;97844.69;;;4.85;68.65
70921;BME280;58572;48.110;19.838;2023-11-19T10:46:37;97881.38;;;5.46;67.99
70921;BME280;58572;48.110;19.838;2023-11-19T10:49:06;97875.97;;;5.68;67.84
70921;BME280;58572;48.110;19.838;2023-11-19T10:51:33;97876.22;;;5.44;67.52
70921;BME280;58572;48.110;19.838;2023-11-19T10:54:03;97876.72;;;5.63;67.24
70921;BME280;58572;48.110;19.838;2023-11-19T10:56:32;97573.09;;;3.67;66.87
70921;BME280;58572;48.110;19.838;2023-11-19T10:59:00;97875.41;;;5.22;68.33
70921;BME280;58572;48.110;19.838;2023-11-19T11:01:46;97836.41;;;4.91;68.83
70921;BME280;58572;48.110;19.838;2023-11-19T11:04:20;97874.22;;;5.35;67.65
70921;BME280;58572;48.110;19.838;2023-11-19T11:06:49;97875.84;;;5.36;67.40
70921;BME280;58572;48.110;19.838;2023-11-19T11:09:17;97868.78;;;5.52;67.24
70921;BME280;58572;48.110;19.838;2023-11-19T11:11:47;97863.19;;;5.58;66.89
70921;BME280;58572;48.110;19.838;2023-11-19T11:14:14;97858.03;;;5.78;66.67
70921;BME280;58572;48.110;19.838;2023-11-19T11:16:43;97837.50;;;5.99;65.75
70921;BME280;58572;48.110;19.838;2023-11-19T11:19:12;97838.41;;;6.10;65.97
70921;BME280;58572;48.110;19.838;2023-11-19T11:21:43;97839.38;;;4.90;68.93
70921;BME280;58572;48.110;19.838;2023-11-19T11:27:30;97839.59;;;5.70;67.66
70921;BME280;58572;48.110;19.838;2023-11-19T11:30:07;97836.09;;;6.24;65.41
70921;BME280;58572;48.110;19.838;2023-11-19T11:32:42;97831.56;;;5.75;67.47
70921;BME280;58572;48.110;19.838;2023-11-19T11:35:24;97828.75;;;5.65;66.74
70921;BME280;58572;48.110;19.838;2023-11-19T11:38:00;97825.88;;;5.99;65.95
70921;BME280;58572;48.110;19.838;2023-11-19T11:40:29;97819.53;;;5.61;67.14
70921;BME280;58572;48.110;19.838;2023-11-19T11:42:57;97826.41;;;5.96;67.48
70921;BME280;58572;48.110;19.838;2023-11-19T11:45:36;97829.59;;;5.93;66.51
70921;BME280;58572;48.110;19.838;2023-11-19T11:48:09;97828.53;;;5.94;65.74
70921;BME280;58572;48.110;19.838;2023-11-19T11:50:47;97818.94;;;6.08;65.90
70921;BME280;58572;48.110;19.838;2023-11-19T11:53:20;97828.06;;;5.53;67.56
70921;BME280;58572;48.110;19.838;2023-11-19T11:56:00;97825.25;;;5.43;68.33
70921;BME280;58572;48.110;19.838;2023-11-19T11:58:32;97814.25;;;5.71;67.81
70921;BME280;58572;48.110;19.838;2023-11-19T12:01:04;97810.03;;;5.81;67.15
70921;BME280;58572;48.110;19.838;2023-11-19T12:03:37;97806.25;;;5.82;66.99
70921;BME280;58572;48.110;19.838;2023-11-19T12:06:07;97808.06;;;5.05;69.59
70921;BME280;58572;48.110;19.838;2023-11-19T12:08:35;97792.16;;;5.74;67.40
70921;BME280;58572;48.110;19.838;2023-11-19T12:11:02;97790.25;;;5.97;66.49
70921;BME280;58572;48.110;19.838;2023-11-19T12:13:47;97792.25;;;5.85;66.67
70921;BME280;58572;48.110;19.838;2023-11-19T12:16:14;97788.63;;;5.96;66.23
70921;BME280;58572;48.110;19.838;2023-11-19T12:18:42;97784.84;;;5.97;65.99
70921;BME280;58572;48.110;19.838;2023-11-19T12:21:10;97772.81;;;6.09;66.01
70921;BME280;58572;48.110;19.838;2023-11-19T12:23:45;97773.03;;;6.03;65.96
70921;BME280;58572;48.110;19.838;2023-11-19T12:26:36;97745.56;;;6.11;65.86
70921;BME280;58572;48.110;19.838;2023-11-19T12:29:03;97736.16;;;5.87;66.85
70921;BME280;58572;48.110;19.838;2023-11-19T12:31:32;97747.59;;;4.74;69.80
70921;BME280;58572;48.110;19.838;2023-11-19T12:34:06;97754.09;;;5.44;68.53
70921;BME280;58572;48.110;19.838;2023-11-19T12:36:39;97750.22;;;5.89;66.81
70921;BME280;58572;48.110;19.838;2023-11-19T12:39:08;97749.50;;;6.25;65.58
70921;BME280;58572;48.110;19.838;2023-11-19T12:41:56;97746.66;;;6.10;65.97
70921;BME280;58572;48.110;19.838;2023-11-19T12:44:24;97746.06;;;6.03;65.95
70921;BME280;58572;48.110;19.838;2023-11-19T12:47:04;97740.16;;;5.79;66.98
70921;BME280;58572;48.110;19.838;2023-11-19T12:49:32;97734.53;;;5.86;66.90
70921;BME280;58572;48.110;19.838;2023-11-19T12:52:01;97715.34;;;5.50;67.32
70921;BME280;58572;48.110;19.838;2023-11-19T12:54:33;97710.34;;;5.64;67.61
70921;BME280;58572;48.110;19.838;2023-11-19T12:57:01;97653.94;;;5.57;67.07
70921;BME280;58572;48.110;19.838;2023-11-19T12:59:28;97687.75;;;6.02;65.63
70921;BME280;58572;48.110;19.838;2023-11-19T13:01:56;97674.28;;;6.02;66.80
70921;BME280;58572;48.110;19.838;2023-11-19T13:04:29;97650.72;;;5.60;67.24
70921;BME280;58572;48.110;19.838;2023-11-19T13:07:04;97695.50;;;5.61;68.30
70921;BME280;58572;48.110;19.838;2023-11-19T13:09:35;97695.03;;;6.01;66.90